Time;durP1;ratioP1;P1;durP2;ratioP2;P2;SDS_P1;SDS_P2;PMS_P1;PMS_P2;Temp;Humidity;BMP_temperature;BMP_pressure;BME280_temperature;BME280_humidity;BME280_pressure;Samples;Min_cycle;Max_cycle;Signal;HPM_P1;HPM_P2
2021/05/25 11:00:41;;;;;;;7.77;2.60;;;19.10;76.40;;;;;;5122484;27;20517;-80
2021/05/25 11:03:22;;;;;;;4.33;2.70;;;19.40;78.60;;;;;;5122630;27;20443;-82
2021/05/25 11:05:56;;;;;;;8.60;2.03;;;20.30;75.70;;;;;;5122490;28;20429;-80
2021/05/25 11:08:40;;;;;;;4.97;2.33;;;21.30;72.90;;;;;;5122725;28;20447;-76
2021/05/25 11:11:15;;;;;;;29.67;14.30;;;21.70;64.80;;;;;;5118791;27;20479;-81
2021/05/25 11:13:49;;;;;;;153.50;58.10;;;21.10;62.10;;;;;;5132621;27;20462;-82
2021/05/25 11:16:19;;;;;;;137.73;57.13;;;20.50;59.70;;;;;;5142936;27;20430;-84
2021/05/25 11:18:49;;;;;;;152.07;59.43;;;20.40;59.00;;;;;;5141727;27;20442;-82
2021/05/25 11:21:48;;;;;;;179.37;74.93;;;20.10;59.70;;;;;;5126952;27;20519;-84
2021/05/25 11:24:29;;;;;;;36.20;17.20;;;20.10;61.20;;;;;;5100066;28;20436;-81
2021/05/25 11:26:58;;;;;;;20.53;10.30;;;20.00;61.10;;;;;;5101248;28;20469;-83
2021/05/25 11:29:26;;;;;;;141.13;60.07;;;20.30;62.20;;;;;;5101502;28;20467;-81
2021/05/25 11:31:56;;;;;;;30.37;15.60;;;20.60;62.20;;;;;;5101613;28;20440;-84
2021/05/25 11:34:25;;;;;;;21.20;12.17;;;20.60;61.30;;;;;;5102152;28;20467;-84
2021/05/25 11:36:54;;;;;;;121.00;56.33;;;21.50;59.60;;;;;;5101293;28;20433;-82
2021/05/25 11:39:21;;;;;;;63.30;30.73;;;23.00;58.70;;;;;;5101377;28;20415;-84
2021/05/25 11:41:49;;;;;;;74.83;36.80;;;24.50;56.80;;;;;;5101371;28;20471;-83
2021/05/25 11:44:18;;;;;;;210.30;89.90;;;25.70;51.70;;;;;;5101824;28;20422;-83
2021/05/25 11:46:47;;;;;;;149.03;68.50;;;25.00;51.00;;;;;;5101018;28;20605;-85
2021/05/25 11:49:16;;;;;;;14.73;7.07;;;24.60;51.40;;;;;;5101553;28;20474;-78
2021/05/25 11:51:44;;;;;;;7.63;5.83;;;24.60;49.80;;;;;;5101660;28;20580;-76
2021/05/25 11:54:13;;;;;;;5.73;5.07;;;24.40;47.60;;;;;;5101260;28;20440;-78
2021/05/25 11:56:44;;;;;;;4.67;3.87;;;22.90;49.90;;;;;;5101738;28;20499;-79
2021/05/25 11:59:12;;;;;;;12.50;7.60;;;22.10;50.30;;;;;;5101202;28;20416;-80
2021/05/25 12:01:41;;;;;;;8.10;5.73;;;21.90;51.30;;;;;;5101216;28;20577;-76
2021/05/25 12:04:09;;;;;;;6.77;4.80;;;21.80;51.90;;;;;;5101424;28;20418;-80
2021/05/25 12:06:49;;;;;;;4.00;3.70;;;21.30;52.20;;;;;;5101070;28;20509;-80
2021/05/25 12:09:17;;;;;;;4.87;3.30;;;20.40;52.40;;;;;;5101097;28;20461;-79
2021/05/25 12:11:46;;;;;;;4.93;2.87;;;20.80;55.20;;;;;;5107499;27;20446;-79
2021/05/25 12:14:14;;;;;;;3.07;2.70;;;21.30;54.30;;;;;;5107454;28;20415;-79
2021/05/25 12:16:42;;;;;;;2.80;2.50;;;21.60;53.50;;;;;;5107446;28;20435;-79
2021/05/25 12:19:11;;;;;;;3.17;2.87;;;21.70;53.20;;;;;;5107272;28;20415;-79
2021/05/25 12:21:39;;;;;;;3.80;2.40;;;21.90;53.40;;;;;;5107158;28;20446;-78
2021/05/25 12:24:07;;;;;;;2.30;2.00;;;22.20;53.60;;;;;;5107352;28;20501;-79
2021/05/25 12:26:47;;;;;;;2.30;2.10;;;22.20;53.20;;;;;;5107432;28;20456;-80
2021/05/25 12:29:15;;;;;;;2.60;1.80;;;22.40;53.30;;;;;;5107204;28;20467;-80
2021/05/25 12:31:43;;;;;;;2.20;1.77;;;22.40;53.10;;;;;;5107237;28;20508;-79
2021/05/25 12:34:10;;;;;;;1.83;1.50;;;22.50;53.20;;;;;;5108457;27;20442;-80
2021/05/25 12:36:53;;;;;;;1.33;1.23;;;22.50;53.00;;;;;;5115646;27;20518;-80
2021/05/25 12:39:33;;;;;;;1.43;1.33;;;22.50;53.00;;;;;;5116473;27;20431;-79
2021/05/25 12:42:01;;;;;;;1.40;1.20;;;22.40;53.00;;;;;;5115901;27;20466;-79
2021/05/25 12:44:29;;;;;;;1.20;1.10;;;22.40;53.00;;;;;;5118863;27;20533;-78
2021/05/25 12:46:59;;;;;;;0.90;0.90;;;22.40;53.10;;;;;;5119593;27;20419;-79
2021/05/25 12:49:31;;;;;;;1.10;1.00;;;22.40;53.10;;;;;;5127388;27;20552;-79
2021/05/25 12:52:17;;;;;;;3.00;1.27;;;22.40;53.30;;;;;;5127270;27;20409;-82
2021/05/25 12:54:52;;;;;;;3.47;1.80;;;22.50;53.40;;;;;;5127014;27;20455;-81
2021/05/25 12:57:19;;;;;;;4.30;2.43;;;22.50;53.40;;;;;;5127212;27;20471;-77
2021/05/25 12:59:58;;;;;;;11.27;2.93;;;22.50;53.40;;;;;;5126545;27;20443;-79
2021/05/25 13:02:41;;;;;;;4.30;2.10;;;22.50;53.40;;;;;;5127294;27;20464;-79
2021/05/25 13:05:10;;;;;;;5.30;2.00;;;22.40;53.40;;;;;;5125357;27;20413;-79
2021/05/25 13:07:52;;;;;;;7.70;2.83;;;22.40;53.50;;;;;;5126066;27;20430;-79
2021/05/25 13:10:31;;;;;;;6.03;2.20;;;22.50;53.80;;;;;;5126653;27;20502;-81
2021/05/25 13:13:11;;;;;;;6.10;2.50;;;22.80;53.90;;;;;;5126357;27;20409;-82
2021/05/25 13:15:40;;;;;;;6.93;2.70;;;22.80;53.40;;;;;;5126884;27;20439;-82
2021/05/25 13:18:09;;;;;;;5.80;2.20;;;23.00;53.30;;;;;;5126402;27;20500;-81
2021/05/25 13:20:37;;;;;;;5.00;2.37;;;22.90;53.10;;;;;;5126636;27;20413;-82
2021/05/25 13:23:04;;;;;;;3.80;2.00;;;23.00;53.10;;;;;;5125405;27;20433;-81
2021/05/25 13:25:34;;;;;;;6.30;2.40;;;23.20;53.10;;;;;;5125781;27;20484;-81
2021/05/25 13:28:02;;;;;;;5.93;2.10;;;23.30;52.70;;;;;;5126030;27;20482;-82
2021/05/25 13:30:42;;;;;;;8.60;3.07;;;23.30;52.50;;;;;;5126114;27;20505;-82
2021/05/25 13:33:10;;;;;;;10.43;2.23;;;23.30;52.50;;;;;;5126413;27;20472;-76
2021/05/25 13:35:38;;;;;;;3.93;2.30;;;23.20;52.50;;;;;;5126401;27;20409;-76
2021/05/25 13:38:07;;;;;;;4.93;2.07;;;23.10;52.30;;;;;;5125520;27;20503;-76
2021/05/25 13:40:35;;;;;;;5.53;2.07;;;23.10;52.50;;;;;;5126163;27;20540;-76
2021/05/25 13:43:03;;;;;;;4.60;2.10;;;23.10;52.50;;;;;;5125758;27;20462;-76
2021/05/25 13:45:30;;;;;;;8.00;2.67;;;23.00;52.40;;;;;;5125776;27;20410;-76
2021/05/25 13:48:16;;;;;;;2.17;1.60;;;23.00;52.90;;;;;;5126030;27;20488;-76
2021/05/25 13:50:44;;;;;;;5.17;2.47;;;22.90;52.40;;;;;;5126010;27;20441;-76
2021/05/25 13:53:12;;;;;;;2.80;2.10;;;23.00;52.50;;;;;;5126197;27;20450;-76
2021/05/25 13:55:41;;;;;;;1.90;1.70;;;23.00;52.60;;;;;;5125833;27;20491;-76
2021/05/25 13:58:21;;;;;;;;;;;;;;;;;;;;;
2021/05/25 14:01:10;;;;;;;4.60;2.20;;;23.10;52.60;;;;;;5126114;27;20430;-76
2021/05/25 14:03:38;;;;;;;2.80;1.80;;;23.30;52.60;;;;;;5125931;27;20534;-76
2021/05/25 14:06:05;;;;;;;3.13;2.40;;;23.50;52.50;;;;;;5125615;27;20413;-76
2021/05/25 14:08:33;;;;;;;4.40;1.77;;;23.80;52.30;;;;;;5125452;27;20426;-76
2021/05/25 14:11:01;;;;;;;2.33;2.13;;;23.90;52.00;;;;;;5125805;27;20475;-76
2021/05/25 14:13:29;;;;;;;3.20;1.77;;;24.00;51.80;;;;;;5125385;27;20425;-76
2021/05/25 14:15:57;;;;;;;2.90;2.10;;;24.00;51.30;;;;;;5125302;27;20499;-76
2021/05/25 14:18:24;;;;;;;3.77;1.67;;;24.10;51.30;;;;;;5125606;27;20432;-76
2021/05/25 14:20:52;;;;;;;4.90;1.70;;;24.10;51.00;;;;;;5125863;27;20401;-76
2021/05/25 14:23:20;;;;;;;4.27;2.07;;;23.90;50.90;;;;;;5125349;27;20406;-76
2021/05/25 14:25:47;;;;;;;2.07;1.87;;;23.80;51.00;;;;;;5125413;27;20497;-76
2021/05/25 14:28:16;;;;;;;2.03;1.67;;;23.70;51.10;;;;;;5124564;27;20427;-76
2021/05/25 14:30:43;;;;;;;4.73;2.30;;;23.60;51.20;;;;;;5125138;27;20474;-81
2021/05/25 14:33:12;;;;;;;2.70;1.70;;;23.60;51.40;;;;;;5125440;27;20427;-84
2021/05/25 14:35:40;;;;;;;5.27;1.70;;;23.60;51.30;;;;;;5125846;27;20402;-82
2021/05/25 14:38:08;;;;;;;5.50;2.00;;;23.70;51.50;;;;;;5125080;27;20425;-81
2021/05/25 14:40:35;;;;;;;5.13;1.80;;;23.70;51.20;;;;;;5125035;27;20474;-82
2021/05/25 14:43:03;;;;;;;2.40;1.63;;;23.70;51.10;;;;;;5124649;27;20459;-81
2021/05/25 14:45:31;;;;;;;4.13;1.47;;;23.70;51.10;;;;;;5125103;27;20401;-82
2021/05/25 14:47:58;;;;;;;3.20;1.93;;;23.60;50.90;;;;;;5125386;27;20436;-82
2021/05/25 14:50:26;;;;;;;4.10;1.57;;;23.60;51.00;;;;;;5126997;27;20453;-82
2021/05/25 14:52:56;;;;;;;2.23;1.87;;;23.50;50.90;;;;;;5125362;27;20491;-80
2021/05/25 14:55:25;;;;;;;4.30;1.90;;;23.50;50.90;;;;;;5125308;27;20414;-80
2021/05/25 14:57:53;;;;;;;2.47;1.50;;;23.50;50.80;;;;;;5125008;28;20447;-81
2021/05/25 15:00:22;;;;;;;3.33;1.77;;;23.60;50.90;;;;;;5124766;28;20474;-81
2021/05/25 15:03:00;;;;;;;3.10;1.80;;;23.50;50.80;;;;;;5125490;27;20427;-81
2021/05/25 15:05:33;;;;;;;2.20;2.00;;;23.50;50.80;;;;;;5126197;28;20413;-81
2021/05/25 15:08:03;;;;;;;4.20;1.70;;;23.40;50.90;;;;;;5124992;28;20450;-81
2021/05/25 15:10:31;;;;;;;2.73;1.63;;;23.40;51.00;;;;;;5124798;28;20473;-81
2021/05/25 15:12:58;;;;;;;3.33;2.10;;;23.30;51.00;;;;;;5125035;28;20514;-81
2021/05/25 15:15:26;;;;;;;2.53;2.20;;;23.30;51.10;;;;;;5124491;28;20427;-81
2021/05/25 15:17:54;;;;;;;1.90;1.47;;;23.30;51.10;;;;;;5124270;28;20488;-81
2021/05/25 15:20:22;;;;;;;1.90;1.70;;;23.30;51.20;;;;;;5124339;28;20402;-81
2021/05/25 15:22:50;;;;;;;4.70;1.57;;;23.30;51.20;;;;;;5125381;27;20413;-81
2021/05/25 15:25:20;;;;;;;4.47;1.90;;;23.20;51.10;;;;;;5124422;28;20435;-81
2021/05/25 15:27:49;;;;;;;1.60;1.50;;;23.20;51.10;;;;;;5124403;27;20489;-81
2021/05/25 15:30:31;;;;;;;1.90;1.80;;;23.20;51.20;;;;;;5124669;28;20437;-81
2021/05/25 15:32:59;;;;;;;1.93;1.63;;;23.10;51.10;;;;;;5124603;28;20521;-81
2021/05/25 15:35:27;;;;;;;3.97;1.37;;;23.10;51.20;;;;;;5124604;28;20433;-81
2021/05/25 15:37:54;;;;;;;1.47;1.37;;;23.10;51.20;;;;;;5124281;28;20546;-81
2021/05/25 15:40:22;;;;;;;1.57;1.47;;;23.10;51.20;;;;;;5124992;28;20414;-81
2021/05/25 15:42:49;;;;;;;2.60;2.10;;;23.00;51.10;;;;;;5124526;28;20433;-77
2021/05/25 15:45:17;;;;;;;2.40;1.43;;;23.00;51.20;;;;;;5125182;27;20428;-79
2021/05/25 15:47:44;;;;;;;1.70;1.60;;;23.00;51.10;;;;;;5128407;27;20423;-80
2021/05/25 15:50:25;;;;;;;2.50;1.90;;;23.00;51.20;;;;;;5128599;27;20467;-81
2021/05/25 15:52:54;;;;;;;1.70;1.60;;;22.90;51.20;;;;;;5128744;27;20591;-81
2021/05/25 15:55:22;;;;;;;2.33;1.53;;;22.90;51.20;;;;;;5128172;27;20409;-79
2021/05/25 15:57:49;;;;;;;3.00;1.60;;;22.90;51.20;;;;;;5127917;27;20521;-79
2021/05/25 16:00:17;;;;;;;2.33;1.40;;;23.00;51.40;;;;;;5128160;27;20421;-79
2021/05/25 16:02:44;;;;;;;2.07;1.43;;;23.10;51.30;;;;;;5128306;27;20493;-79
2021/05/25 16:05:13;;;;;;;3.10;1.70;;;23.20;51.30;;;;;;5128534;27;20491;-79
2021/05/25 16:07:40;;;;;;;2.60;1.67;;;23.30;51.00;;;;;;5127634;27;20441;-79
2021/05/25 16:10:09;;;;;;;1.60;1.30;;;23.30;50.90;;;;;;5128262;27;20442;-78
2021/05/25 16:12:36;;;;;;;1.93;1.80;;;23.30;50.80;;;;;;5127945;27;20410;-79
2021/05/25 16:15:07;;;;;;;2.00;1.43;;;23.30;50.70;;;;;;5128543;27;20492;-76
2021/05/25 16:17:38;;;;;;;1.80;1.67;;;23.30;50.70;;;;;;5127709;27;20436;-77
2021/05/25 16:20:08;;;;;;;2.40;1.40;;;23.30;50.70;;;;;;5128225;27;20453;-79
2021/05/25 16:22:36;;;;;;;2.00;1.80;;;23.30;50.60;;;;;;5127323;27;20488;-79
2021/05/25 16:25:06;;;;;;;2.40;1.60;;;23.30;50.60;;;;;;5127578;27;20414;-81
2021/05/25 16:27:33;;;;;;;2.60;1.50;;;23.30;50.60;;;;;;5127245;27;20451;-81
2021/05/25 16:30:01;;;;;;;2.07;1.50;;;23.30;50.50;;;;;;5127530;27;20413;-80
2021/05/25 16:32:28;;;;;;;2.03;1.37;;;23.20;50.50;;;;;;5127356;27;20429;-79
2021/05/25 16:34:56;;;;;;;1.93;1.83;;;23.20;50.60;;;;;;5128056;27;20417;-79
2021/05/25 16:37:23;;;;;;;2.33;1.47;;;23.10;50.40;;;;;;5127309;27;20446;-79
2021/05/25 16:39:51;;;;;;;1.57;1.43;;;23.10;50.40;;;;;;5127522;27;20434;-79
2021/05/25 16:42:19;;;;;;;2.00;1.40;;;23.10;50.50;;;;;;5127464;27;20435;-79
2021/05/25 16:44:46;;;;;;;3.50;1.37;;;23.00;50.40;;;;;;5127378;27;20433;-79
2021/05/25 16:47:14;;;;;;;1.97;1.70;;;23.00;50.60;;;;;;5127291;27;20471;-79
2021/05/25 16:49:41;;;;;;;2.23;1.70;;;22.90;50.50;;;;;;5127094;27;20422;-79
2021/05/25 16:52:09;;;;;;;1.53;1.43;;;22.80;50.50;;;;;;5126938;27;20442;-79
2021/05/25 16:54:36;;;;;;;1.23;1.13;;;22.80;50.70;;;;;;5127037;27;20439;-79
2021/05/25 16:57:06;;;;;;;1.90;1.57;;;22.70;50.70;;;;;;5127333;27;20481;-79
2021/05/25 16:59:34;;;;;;;1.70;1.60;;;22.60;50.80;;;;;;5126903;27;20490;-77
2021/05/25 17:02:04;;;;;;;1.53;1.43;;;22.50;50.90;;;;;;5126897;27;20405;-78
2021/05/25 17:04:39;;;;;;;1.70;1.60;;;22.50;51.00;;;;;;5127326;27;20509;-78
2021/05/25 17:07:16;;;;;;;1.63;1.53;;;22.40;51.00;;;;;;5126819;27;20529;-78
2021/05/25 17:10:13;;;;;;;1.80;1.70;;;22.40;51.20;;;;;;5127056;27;20470;-78
2021/05/25 17:18:11;;;;;;;1.77;1.57;;;22.20;51.50;;;;;;5126884;27;20406;-79
2021/05/25 17:20:38;;;;;;;2.20;1.47;;;22.20;51.60;;;;;;5126575;27;20535;-79
2021/05/25 17:23:05;;;;;;;1.70;1.50;;;22.10;51.60;;;;;;5126465;27;20470;-79
2021/05/25 17:28:16;;;;;;;1.60;1.50;;;22.10;51.80;;;;;;5123637;27;20530;-78
2021/05/25 17:30:43;;;;;;;1.90;1.80;;;22.00;51.80;;;;;;5125982;27;20466;-79
2021/05/25 17:33:10;;;;;;;2.47;1.60;;;22.00;51.80;;;;;;5126595;27;20502;-79
2021/05/25 17:35:38;;;;;;;2.10;1.60;;;22.00;51.90;;;;;;5126040;27;20509;-78
2021/05/25 17:38:05;;;;;;;1.87;1.77;;;22.00;52.00;;;;;;5125690;27;21058;-78
2021/05/25 17:40:33;;;;;;;1.67;1.50;;;22.00;52.00;;;;;;5126353;27;20521;-78
2021/05/25 17:43:00;;;;;;;1.50;1.40;;;22.00;52.00;;;;;;5125990;27;20523;-80
2021/05/25 17:45:29;;;;;;;3.17;2.10;;;21.90;52.00;;;;;;5126105;27;20522;-81
2021/05/25 17:47:57;;;;;;;1.90;1.80;;;21.90;52.10;;;;;;5125762;27;20439;-81
2021/05/25 17:50:25;;;;;;;1.40;1.30;;;21.90;52.10;;;;;;5125388;27;20471;-81
2021/05/25 17:52:52;;;;;;;1.70;1.60;;;21.90;52.10;;;;;;5125984;27;20493;-81
2021/05/25 17:55:20;;;;;;;1.90;1.50;;;21.80;52.10;;;;;;5126314;27;20447;-81
2021/05/25 17:57:47;;;;;;;3.03;1.60;;;21.80;52.20;;;;;;5125921;27;20429;-81
2021/05/25 18:00:16;;;;;;;1.73;1.43;;;21.70;52.10;;;;;;5126282;27;20442;-81
2021/05/25 18:02:44;;;;;;;1.83;1.40;;;21.70;52.20;;;;;;5125883;27;20431;-81
2021/05/25 18:05:12;;;;;;;2.37;1.37;;;21.60;52.20;;;;;;5127011;27;20439;-81
2021/05/25 18:07:41;;;;;;;3.50;1.80;;;21.60;52.40;;;;;;5125847;27;20473;-81
2021/05/25 18:10:12;;;;;;;2.00;1.80;;;21.60;52.40;;;;;;5125913;27;20500;-82
2021/05/25 18:12:40;;;;;;;1.80;1.63;;;21.60;52.40;;;;;;5125778;27;20574;-81
2021/05/25 18:15:08;;;;;;;2.20;1.30;;;21.60;52.50;;;;;;5125813;27;20427;-81
2021/05/25 18:17:35;;;;;;;1.70;1.60;;;21.50;52.50;;;;;;5125883;27;20507;-81
2021/05/25 18:20:06;;;;;;;3.70;1.70;;;21.50;52.60;;;;;;5125780;27;20453;-81
2021/05/25 18:22:35;;;;;;;1.70;1.60;;;21.50;52.70;;;;;;5125925;27;20462;-82
2021/05/25 18:25:02;;;;;;;5.00;1.90;;;21.50;52.70;;;;;;5126083;27;20467;-82
2021/05/25 18:27:30;;;;;;;1.63;1.53;;;21.40;52.60;;;;;;5125133;27;20438;-82
2021/05/25 18:29:58;;;;;;;1.70;1.60;;;21.40;52.70;;;;;;5125109;27;20435;-77
2021/05/25 18:32:31;;;;;;;3.73;1.57;;;21.40;52.70;;;;;;5124903;27;20544;-78
2021/05/25 18:35:06;;;;;;;1.60;1.50;;;21.40;52.70;;;;;;5125148;27;20439;-77
2021/05/25 18:37:49;;;;;;;3.53;1.80;;;21.40;52.60;;;;;;5125248;27;20442;-81
2021/05/25 18:40:27;;;;;;;1.47;1.30;;;21.40;52.60;;;;;;5125419;27;20435;-76
2021/05/25 18:42:56;;;;;;;2.63;1.90;;;21.40;52.60;;;;;;5125805;27;20398;-82
2021/05/25 18:45:25;;;;;;;1.70;1.50;;;21.30;52.60;;;;;;5125325;27;20406;-79
2021/05/25 18:47:53;;;;;;;1.90;1.77;;;21.40;52.80;;;;;;5124733;27;20466;-80
2021/05/25 18:50:21;;;;;;;1.70;1.60;;;21.30;52.70;;;;;;5125063;27;20421;-79
2021/05/25 18:52:50;;;;;;;1.60;1.50;;;21.30;52.70;;;;;;5125065;27;20474;-79
2021/05/25 18:55:18;;;;;;;1.93;1.67;;;21.30;52.70;;;;;;5125141;27;20421;-79
2021/05/25 18:57:56;;;;;;;1.57;1.47;;;21.30;52.70;;;;;;5124754;27;20394;-79
2021/05/25 19:00:24;;;;;;;1.83;1.47;;;21.20;52.70;;;;;;5125430;28;20457;-79
2021/05/25 19:02:53;;;;;;;3.40;1.70;;;21.20;52.70;;;;;;5124910;28;20534;-79
2021/05/25 19:05:20;;;;;;;2.20;1.57;;;21.20;52.80;;;;;;5125183;28;20488;-79
2021/05/25 19:07:50;;;;;;;2.17;1.63;;;21.10;52.70;;;;;;5124542;28;20416;-81
2021/05/25 19:10:19;;;;;;;2.90;1.50;;;21.10;52.70;;;;;;5125123;28;20423;-77
2021/05/25 19:12:47;;;;;;;1.60;1.50;;;21.10;52.70;;;;;;5124923;27;20471;-78
2021/05/25 19:15:15;;;;;;;2.13;1.63;;;21.10;52.70;;;;;;5124757;28;20425;-81
2021/05/25 19:17:42;;;;;;;1.50;1.40;;;21.10;52.70;;;;;;5124583;28;20438;-79
2021/05/25 19:20:22;;;;;;;1.63;1.53;;;21.00;52.60;;;;;;5125088;27;20437;-77
2021/05/25 19:22:58;;;;;;;1.60;1.50;;;21.00;52.50;;;;;;5129504;27;20430;-77
2021/05/25 19:25:27;;;;;;;5.03;1.47;;;21.00;52.60;;;;;;5128904;27;20434;-79
2021/05/25 19:27:56;;;;;;;2.07;1.87;;;20.90;52.50;;;;;;5129001;27;20483;-77
2021/05/25 19:30:24;;;;;;;1.60;1.50;;;20.90;52.50;;;;;;5129693;27;20451;-77
2021/05/25 19:32:52;;;;;;;2.00;1.40;;;20.90;52.60;;;;;;5128799;27;20467;-78
2021/05/25 19:35:20;;;;;;;2.10;1.53;;;20.80;52.60;;;;;;5128957;27;20405;-76
2021/05/25 19:37:47;;;;;;;1.60;1.50;;;20.80;52.60;;;;;;5128677;27;20435;-77
2021/05/25 19:40:16;;;;;;;1.40;1.10;;;20.80;52.60;;;;;;5128961;27;20521;-79
2021/05/25 19:42:44;;;;;;;1.33;1.23;;;20.80;52.60;;;;;;5128268;27;20488;-79
2021/05/25 19:45:13;;;;;;;1.90;1.30;;;20.70;52.50;;;;;;5128489;27;20421;-79
2021/05/25 19:47:43;;;;;;;1.63;1.53;;;20.70;52.60;;;;;;5128556;27;20431;-81
2021/05/25 19:50:13;;;;;;;1.63;1.50;;;20.70;52.60;;;;;;5128115;27;20434;-79
2021/05/25 19:52:41;;;;;;;1.57;1.47;;;20.70;52.60;;;;;;5128550;27;20498;-78
2021/05/25 19:55:10;;;;;;;1.50;1.40;;;20.70;52.70;;;;;;5128177;27;20495;-79
2021/05/25 19:57:37;;;;;;;1.50;1.37;;;20.60;52.60;;;;;;5128454;27;20447;-79
2021/05/25 20:00:07;;;;;;;1.30;1.20;;;20.60;52.70;;;;;;5128309;27;20446;-79
2021/05/25 20:02:34;;;;;;;1.43;1.20;;;20.60;52.70;;;;;;5128181;27;20431;-79
2021/05/25 20:05:11;;;;;;;1.43;1.33;;;20.60;52.80;;;;;;5128319;27;20427;-81
2021/05/25 20:07:38;;;;;;;1.40;1.30;;;20.50;52.70;;;;;;5127428;27;20510;-77
2021/05/25 20:10:22;;;;;;;2.77;1.57;;;20.50;52.70;;;;;;5127880;27;20405;-77
2021/05/25 20:12:52;;;;;;;2.53;1.67;;;20.50;52.60;;;;;;5127841;27;20470;-79
2021/05/25 20:15:21;;;;;;;3.50;1.80;;;20.50;52.70;;;;;;5127847;27;20397;-77
2021/05/25 20:17:56;;;;;;;2.40;1.20;;;20.50;52.80;;;;;;5127721;27;20421;-79
2021/05/25 20:20:28;;;;;;;4.47;1.30;;;20.50;52.70;;;;;;5127778;27;20523;-80
2021/05/25 20:23:06;;;;;;;1.53;1.40;;;20.40;52.70;;;;;;5128317;27;20409;-80
2021/05/25 20:25:33;;;;;;;1.43;1.33;;;20.40;52.80;;;;;;5128334;27;20443;-80
2021/05/25 20:28:03;;;;;;;1.53;1.03;;;20.40;52.80;;;;;;5127962;27;20441;-80
2021/05/25 20:30:31;;;;;;;1.67;1.20;;;20.40;52.80;;;;;;5128347;27;20462;-80
2021/05/25 20:33:01;;;;;;;1.27;1.17;;;20.40;52.90;;;;;;5127260;27;20611;-79
2021/05/25 20:38:22;;;;;;;1.77;1.60;;;20.30;53.00;;;;;;5127646;27;20435;-79
2021/05/25 20:40:51;;;;;;;1.63;1.27;;;20.30;53.00;;;;;;5127419;27;20435;-79
2021/05/25 20:43:19;;;;;;;1.00;1.00;;;20.30;53.10;;;;;;5127681;27;20442;-78
2021/05/25 20:45:47;;;;;;;1.07;1.07;;;20.30;53.10;;;;;;5127589;27;20431;-78
2021/05/25 20:48:15;;;;;;;1.30;1.20;;;20.20;53.00;;;;;;5127440;27;20413;-79
2021/05/25 20:50:42;;;;;;;1.20;1.10;;;20.20;53.70;;;;;;5127595;27;20580;-79
2021/05/25 20:53:14;;;;;;;1.10;1.10;;;20.20;53.20;;;;;;5127437;27;20471;-77
2021/05/25 20:55:42;;;;;;;1.60;1.50;;;20.10;53.20;;;;;;5127007;27;20501;-77
2021/05/25 20:58:10;;;;;;;1.53;1.37;;;20.10;53.20;;;;;;5126712;27;20496;-76
2021/05/25 21:00:41;;;;;;;2.40;1.10;;;20.10;53.20;;;;;;5127391;27;20435;-77
2021/05/25 21:03:09;;;;;;;1.30;1.20;;;20.10;53.40;;;;;;5127530;27;20437;-77
2021/05/25 21:05:41;;;;;;;1.40;1.30;;;20.10;53.20;;;;;;5127763;27;20491;-78
2021/05/25 21:08:14;;;;;;;1.57;1.47;;;20.10;53.30;;;;;;5127671;27;20476;-77
2021/05/25 21:10:42;;;;;;;1.40;1.30;;;20.10;53.40;;;;;;5132836;27;20439;-82
2021/05/25 21:13:13;;;;;;;1.53;1.40;;;20.10;53.40;;;;;;5127202;27;20441;-82
2021/05/25 21:15:43;;;;;;;1.47;1.37;;;20.10;53.30;;;;;;5126379;27;20467;-78
2021/05/25 21:18:12;;;;;;;2.80;1.70;;;20.10;53.40;;;;;;5126745;27;20453;-78
2021/05/25 21:20:40;;;;;;;1.60;1.50;;;20.00;53.30;;;;;;5126007;27;20463;-79
2021/05/25 21:23:11;;;;;;;2.87;1.43;;;20.00;53.40;;;;;;5127100;27;20435;-79
2021/05/25 21:25:40;;;;;;;1.30;1.20;;;20.00;53.50;;;;;;5126330;27;20467;-79
2021/05/25 21:28:07;;;;;;;3.77;1.53;;;20.00;53.50;;;;;;5126069;27;20414;-79
2021/05/25 21:30:35;;;;;;;1.33;1.23;;;20.00;53.60;;;;;;5126235;27;20447;-79
2021/05/25 21:33:05;;;;;;;1.53;1.43;;;19.90;53.50;;;;;;5126240;27;20481;-79
2021/05/25 21:35:33;;;;;;;1.40;1.30;;;19.90;53.50;;;;;;5126696;27;20431;-82
2021/05/25 21:38:05;;;;;;;1.40;1.30;;;19.90;53.60;;;;;;5126335;27;20443;-82
2021/05/25 21:40:34;;;;;;;1.20;1.10;;;20.00;53.60;;;;;;5126602;27;20435;-79
2021/05/25 21:45:27;;;;;;;4.70;1.30;;;19.90;53.60;;;;;;5036120;22;20485;-77
2021/05/25 21:47:56;;;;;;;1.87;1.63;;;19.90;54.20;;;;;;5044942;28;20297;-77
2021/05/25 21:50:40;;;;;;;1.20;1.20;;;19.90;53.60;;;;;;5043617;28;20442;-78
2021/05/25 21:53:09;;;;;;;1.43;1.33;;;19.90;53.60;;;;;;5045333;28;20483;-79
2021/05/25 21:55:36;;;;;;;1.37;1.07;;;19.90;53.60;;;;;;5045154;28;20434;-79
2021/05/25 21:58:04;;;;;;;1.40;1.40;;;19.80;53.60;;;;;;5044591;28;20447;-79
2021/05/25 22:00:32;;;;;;;1.47;1.40;;;19.80;53.70;;;;;;5044343;28;20442;-77
2021/05/25 22:03:02;;;;;;;1.20;1.20;;;19.80;53.70;;;;;;5044439;28;20496;-78
2021/05/25 22:05:30;;;;;;;1.40;1.30;;;19.80;53.70;;;;;;5044949;28;20474;-77
2021/05/25 22:07:58;;;;;;;1.40;1.30;;;19.80;53.80;;;;;;5044653;28;20533;-76
2021/05/25 22:10:26;;;;;;;1.63;1.53;;;19.80;53.80;;;;;;5044508;28;20431;-78
2021/05/25 22:12:53;;;;;;;1.30;1.30;;;19.80;53.80;;;;;;5044681;28;20502;-79
2021/05/25 22:15:23;;;;;;;1.60;1.50;;;19.80;53.80;;;;;;5044628;28;20504;-79
2021/05/25 22:17:51;;;;;;;1.50;1.40;;;19.80;54.40;;;;;;5044185;28;20438;-79
2021/05/25 22:20:18;;;;;;;1.67;1.30;;;19.80;53.80;;;;;;5044961;28;20413;-79
2021/05/25 22:22:52;;;;;;;1.20;1.20;;;19.80;53.80;;;;;;5044369;28;20443;-79
2021/05/25 22:25:30;;;;;;;1.80;1.70;;;19.80;53.80;;;;;;5044217;28;20434;-79
2021/05/25 22:27:58;;;;;;;2.20;1.57;;;19.80;53.80;;;;;;5043810;28;20446;-79
2021/05/25 22:30:25;;;;;;;1.60;1.50;;;19.80;53.80;;;;;;5044188;28;20466;-79
2021/05/25 22:33:14;;;;;;;2.50;1.73;;;19.80;53.80;;;;;;5044178;28;20502;-81
2021/05/25 22:35:41;;;;;;;1.40;1.40;;;19.70;53.90;;;;;;5043849;28;20530;-81
2021/05/25 22:38:11;;;;;;;1.77;1.43;;;19.70;53.80;;;;;;5044419;28;20453;-79
2021/05/25 22:40:40;;;;;;;1.80;1.30;;;19.70;53.90;;;;;;5044110;28;20442;-80
2021/05/25 22:43:07;;;;;;;1.10;1.10;;;19.70;54.00;;;;;;5039553;28;20409;-82
2021/05/25 22:45:35;;;;;;;1.40;1.30;;;19.70;54.10;;;;;;5027651;28;20442;-81
2021/05/25 22:48:03;;;;;;;3.57;1.30;;;19.60;53.90;;;;;;5018917;28;20504;-83
2021/05/25 22:50:37;;;;;;;1.87;1.77;;;19.60;53.90;;;;;;5019989;28;20462;-83
2021/05/25 22:53:04;;;;;;;1.30;1.30;;;19.70;54.00;;;;;;5014310;28;20518;-83
2021/05/25 22:55:32;;;;;;;2.57;1.33;;;19.70;53.90;;;;;;5012331;28;20442;-83
2021/05/25 22:58:00;;;;;;;1.37;1.37;;;19.70;54.00;;;;;;5012620;28;20447;-83
2021/05/25 23:00:47;;;;;;;1.70;1.60;;;19.70;53.90;;;;;;5012926;28;20440;-83
2021/05/25 23:03:15;;;;;;;1.63;1.53;;;19.60;54.00;;;;;;5012658;28;20444;-78
2021/05/25 23:05:42;;;;;;;1.73;1.63;;;19.60;54.00;;;;;;5015202;28;20440;-79
2021/05/25 23:08:19;;;;;;;1.70;1.60;;;19.70;54.10;;;;;;5013389;28;20505;-78
2021/05/25 23:10:46;;;;;;;1.53;1.30;;;19.60;54.00;;;;;;5012838;28;20443;-83
2021/05/25 23:13:14;;;;;;;1.57;1.47;;;19.70;54.00;;;;;;5012709;28;20468;-82
2021/05/25 23:15:42;;;;;;;1.80;1.30;;;19.60;54.00;;;;;;5011316;28;20480;-82
2021/05/25 23:18:10;;;;;;;1.53;1.43;;;19.60;53.90;;;;;;5012469;28;20444;-79
2021/05/25 23:20:37;;;;;;;1.57;1.47;;;19.60;54.00;;;;;;5011650;28;20463;-80
2021/05/25 23:23:04;;;;;;;1.40;1.20;;;19.60;54.00;;;;;;5013642;28;20498;-79
2021/05/25 23:25:32;;;;;;;1.60;1.50;;;19.60;54.00;;;;;;5013456;28;20573;-79
2021/05/25 23:27:59;;;;;;;1.50;1.40;;;19.60;54.10;;;;;;5011269;28;20463;-79
2021/05/25 23:30:28;;;;;;;1.60;1.50;;;19.60;54.00;;;;;;5012850;28;20451;-82
2021/05/25 23:32:57;;;;;;;1.20;1.20;;;19.60;54.10;;;;;;5013740;28;20496;-83
2021/05/25 23:35:25;;;;;;;1.50;1.40;;;19.60;54.10;;;;;;5012041;28;20507;-83
2021/05/25 23:37:53;;;;;;;1.40;1.30;;;19.60;54.20;;;;;;5012433;28;20427;-84
2021/05/25 23:40:21;;;;;;;1.70;1.60;;;19.60;54.20;;;;;;5014112;28;20440;-76
2021/05/25 23:42:48;;;;;;;1.60;1.50;;;19.60;54.20;;;;;;5012884;28;20458;-76
2021/05/25 23:45:16;;;;;;;1.50;1.40;;;19.60;54.20;;;;;;5013181;28;20480;-76
2021/05/25 23:47:44;;;;;;;1.33;1.23;;;19.60;54.10;;;;;;5009132;28;20543;-77
2021/05/25 23:50:12;;;;;;;1.23;1.23;;;19.60;54.10;;;;;;5011811;28;20430;-76
2021/05/25 23:52:40;;;;;;;1.60;1.47;;;19.60;54.10;;;;;;5011321;28;20486;-78
2021/05/25 23:55:08;;;;;;;1.43;1.33;;;19.60;54.10;;;;;;5013184;28;20556;-76
2021/05/25 23:57:36;;;;;;;1.50;1.40;;;19.60;54.20;;;;;;5013739;28;20530;-76
